Terminal Aerodrome Forecast
Issued by NWS Sterling, VA

Home | Current Version | Previous Version | Text Only | Print | Product List | Glossary On
Versions: 1 2 3 4 5 6 7 8 9 10 11 12 13 14 15 16 17 18 19 20 21
147
FTUS41 KLWX 282056 AAA
TAFBWI
TAF AMD
KBWI 282056Z 2821/2924 16011KT P6SM SCT050
     FM290000 17007KT P6SM FEW060
     FM290800 VRB03KT P6SM SCT250
     FM291800 16007KT P6SM OVC110=

USA.gov is the U.S. government's official web portal to all federal, state and local government web resources and services.